sensor_id;sensor_type;location;lat;lon;timestamp;pressure;altitude;pressure_sealevel;temperature;humidity
63204;BME280;49297;43.210;27.914;2023-06-10T00:00:48;100572.25;;;19.65;66.40
63204;BME280;49297;43.210;27.914;2023-06-10T00:03:18;100574.31;;;19.63;66.52
63204;BME280;49297;43.210;27.914;2023-06-10T00:05:45;100577.78;;;19.57;67.42
63204;BME280;49297;43.210;27.914;2023-06-10T00:08:11;100587.09;;;19.54;67.63
63204;BME280;49297;43.210;27.914;2023-06-10T00:10:38;100591.44;;;19.55;67.80
63204;BME280;49297;43.210;27.914;2023-06-10T00:13:05;100591.84;;;19.52;67.70
63204;BME280;49297;43.210;27.914;2023-06-10T00:15:34;100591.78;;;19.46;67.45
63204;BME280;49297;43.210;27.914;2023-06-10T00:18:03;100588.84;;;19.34;67.78
63204;BME280;49297;43.210;27.914;2023-06-10T00:20:30;100592.94;;;19.30;68.02
63204;BME280;49297;43.210;27.914;2023-06-10T00:22:58;100582.81;;;19.25;68.11
63204;BME280;49297;43.210;27.914;2023-06-10T00:25:25;100585.72;;;19.24;67.86
63204;BME280;49297;43.210;27.914;2023-06-10T00:27:51;100592.31;;;19.28;67.47
63204;BME280;49297;43.210;27.914;2023-06-10T00:30:17;100588.81;;;19.27;67.35
63204;BME280;49297;43.210;27.914;2023-06-10T00:32:43;100590.47;;;19.28;66.54
63204;BME280;49297;43.210;27.914;2023-06-10T00:35:11;100585.09;;;19.28;66.35
63204;BME280;49297;43.210;27.914;2023-06-10T00:37:38;100584.91;;;19.30;66.07
63204;BME280;49297;43.210;27.914;2023-06-10T00:40:04;100585.94;;;19.29;65.73
63204;BME280;49297;43.210;27.914;2023-06-10T00:42:30;100583.25;;;19.29;65.92
63204;BME280;49297;43.210;27.914;2023-06-10T00:44:56;100593.56;;;19.32;65.75
63204;BME280;49297;43.210;27.914;2023-06-10T00:47:23;100584.31;;;19.34;65.41
63204;BME280;49297;43.210;27.914;2023-06-10T00:49:54;100586.81;;;19.36;64.96
63204;BME280;49297;43.210;27.914;2023-06-10T00:52:22;100585.38;;;19.40;64.93
63204;BME280;49297;43.210;27.914;2023-06-10T00:54:49;100588.69;;;19.42;64.54
63204;BME280;49297;43.210;27.914;2023-06-10T00:57:15;100595.28;;;19.39;64.47
63204;BME280;49297;43.210;27.914;2023-06-10T00:59:44;100583.50;;;19.40;64.28
63204;BME280;49297;43.210;27.914;2023-06-10T01:02:13;100581.63;;;19.41;64.11
63204;BME280;49297;43.210;27.914;2023-06-10T01:04:39;100586.19;;;19.40;64.03
63204;BME280;49297;43.210;27.914;2023-06-10T01:07:26;100591.56;;;19.40;63.88
63204;BME280;49297;43.210;27.914;2023-06-10T01:10:09;100592.19;;;19.36;63.81
63204;BME280;49297;43.210;27.914;2023-06-10T01:12:45;100589.63;;;19.28;64.09
63204;BME280;49297;43.210;27.914;2023-06-10T01:15:16;100592.91;;;19.23;64.42
63204;BME280;49297;43.210;27.914;2023-06-10T01:18:08;100591.25;;;19.22;64.46
63204;BME280;49297;43.210;27.914;2023-06-10T01:20:37;100579.84;;;19.13;64.73
63204;BME280;49297;43.210;27.914;2023-06-10T01:23:07;100577.75;;;19.09;64.98
63204;BME280;49297;43.210;27.914;2023-06-10T01:25:36;100579.41;;;19.10;64.78
63204;BME280;49297;43.210;27.914;2023-06-10T01:28:33;100577.13;;;19.07;64.71
63204;BME280;49297;43.210;27.914;2023-06-10T01:31:09;100580.63;;;19.07;64.74
63204;BME280;49297;43.210;27.914;2023-06-10T01:33:42;100579.63;;;19.08;64.63
63204;BME280;49297;43.210;27.914;2023-06-10T01:36:09;100582.72;;;19.12;64.59
63204;BME280;49297;43.210;27.914;2023-06-10T01:38:43;100587.09;;;19.13;64.50
63204;BME280;49297;43.210;27.914;2023-06-10T01:41:12;100569.75;;;19.15;64.67
63204;BME280;49297;43.210;27.914;2023-06-10T01:43:39;100573.91;;;19.18;64.28
63204;BME280;49297;43.210;27.914;2023-06-10T01:46:06;100572.44;;;19.15;64.38
63204;BME280;49297;43.210;27.914;2023-06-10T01:48:32;100570.38;;;19.17;64.19
63204;BME280;49297;43.210;27.914;2023-06-10T01:50:58;100569.75;;;19.15;64.17
63204;BME280;49297;43.210;27.914;2023-06-10T01:53:25;100574.28;;;19.15;64.09
63204;BME280;49297;43.210;27.914;2023-06-10T01:55:52;100565.81;;;19.11;64.38
63204;BME280;49297;43.210;27.914;2023-06-10T01:58:18;100571.75;;;19.07;64.55
63204;BME280;49297;43.210;27.914;2023-06-10T02:00:44;100569.47;;;19.03;64.97
63204;BME280;49297;43.210;27.914;2023-06-10T02:03:11;100569.69;;;19.02;64.80
63204;BME280;49297;43.210;27.914;2023-06-10T02:05:37;100570.69;;;19.01;65.04
63204;BME280;49297;43.210;27.914;2023-06-10T02:08:03;100574.63;;;18.98;65.48
63204;BME280;49297;43.210;27.914;2023-06-10T02:10:30;100570.84;;;18.93;65.71
63204;BME280;49297;43.210;27.914;2023-06-10T02:13:03;100567.94;;;18.88;66.32
63204;BME280;49297;43.210;27.914;2023-06-10T02:15:30;100569.69;;;18.80;66.68
63204;BME280;49297;43.210;27.914;2023-06-10T02:17:56;100572.78;;;18.77;66.85
63204;BME280;49297;43.210;27.914;2023-06-10T02:20:22;100575.59;;;18.69;67.15
63204;BME280;49297;43.210;27.914;2023-06-10T02:22:49;100573.53;;;18.71;67.21
63204;BME280;49297;43.210;27.914;2023-06-10T02:25:15;100576.84;;;18.73;67.19
63204;BME280;49297;43.210;27.914;2023-06-10T02:27:43;100573.78;;;18.76;67.05
63204;BME280;49297;43.210;27.914;2023-06-10T02:30:09;100577.28;;;18.77;66.73
63204;BME280;49297;43.210;27.914;2023-06-10T02:32:36;100574.41;;;18.78;66.27
63204;BME280;49297;43.210;27.914;2023-06-10T02:35:02;100577.94;;;18.79;66.03
63204;BME280;49297;43.210;27.914;2023-06-10T02:37:30;100575.28;;;18.79;65.60
63204;BME280;49297;43.210;27.914;2023-06-10T02:39:56;100569.91;;;18.79;65.34
63204;BME280;49297;43.210;27.914;2023-06-10T02:42:22;100568.88;;;18.80;65.37
63204;BME280;49297;43.210;27.914;2023-06-10T02:44:47;100568.03;;;18.79;64.99
63204;BME280;49297;43.210;27.914;2023-06-10T02:47:14;100567.22;;;18.79;64.78
63204;BME280;49297;43.210;27.914;2023-06-10T02:49:41;100574.41;;;18.78;64.61
63204;BME280;49297;43.210;27.914;2023-06-10T02:52:07;100565.75;;;18.76;64.56
63204;BME280;49297;43.210;27.914;2023-06-10T02:54:34;100576.09;;;18.79;64.09
63204;BME280;49297;43.210;27.914;2023-06-10T02:57:01;100581.44;;;18.79;63.97
63204;BME280;49297;43.210;27.914;2023-06-10T02:59:28;100584.78;;;18.81;63.76
63204;BME280;49297;43.210;27.914;2023-06-10T03:01:55;100584.78;;;18.81;63.67
63204;BME280;49297;43.210;27.914;2023-06-10T03:04:21;100581.72;;;18.85;63.91
63204;BME280;49297;43.210;27.914;2023-06-10T03:06:49;100587.53;;;18.88;63.98
63204;BME280;49297;43.210;27.914;2023-06-10T03:09:17;100579.50;;;18.88;63.81
63204;BME280;49297;43.210;27.914;2023-06-10T03:11:43;100588.34;;;18.89;63.68
63204;BME280;49297;43.210;27.914;2023-06-10T03:14:09;100586.72;;;18.88;63.82
63204;BME280;49297;43.210;27.914;2023-06-10T03:16:35;100580.50;;;18.87;64.13
63204;BME280;49297;43.210;27.914;2023-06-10T03:19:02;100576.56;;;18.83;64.33
63204;BME280;49297;43.210;27.914;2023-06-10T03:21:28;100574.22;;;18.80;64.36
63204;BME280;49297;43.210;27.914;2023-06-10T03:23:55;100573.22;;;18.81;64.73
63204;BME280;49297;43.210;27.914;2023-06-10T03:26:21;100579.78;;;18.78;64.88
63204;BME280;49297;43.210;27.914;2023-06-10T03:28:47;100577.09;;;18.78;65.19
63204;BME280;49297;43.210;27.914;2023-06-10T03:31:14;100578.41;;;18.82;65.29
63204;BME280;49297;43.210;27.914;2023-06-10T03:33:42;100575.13;;;18.87;65.01
63204;BME280;49297;43.210;27.914;2023-06-10T03:36:09;100583.44;;;18.92;64.88
63204;BME280;49297;43.210;27.914;2023-06-10T03:38:36;100579.72;;;18.93;64.26
63204;BME280;49297;43.210;27.914;2023-06-10T03:41:04;100587.16;;;18.91;64.29
63204;BME280;49297;43.210;27.914;2023-06-10T03:43:34;100580.31;;;18.89;64.85
63204;BME280;49297;43.210;27.914;2023-06-10T03:46:00;100580.31;;;18.89;64.79
63204;BME280;49297;43.210;27.914;2023-06-10T03:48:27;100586.91;;;18.86;64.90
63204;BME280;49297;43.210;27.914;2023-06-10T03:50:59;100577.19;;;18.85;65.12
63204;BME280;49297;43.210;27.914;2023-06-10T03:53:32;100569.34;;;18.83;65.32
63204;BME280;49297;43.210;27.914;2023-06-10T03:55:58;100569.56;;;18.89;65.42
63204;BME280;49297;43.210;27.914;2023-06-10T03:58:30;100563.63;;;18.93;64.27
63204;BME280;49297;43.210;27.914;2023-06-10T04:00:56;100569.81;;;18.94;63.32
63204;BME280;49297;43.210;27.914;2023-06-10T04:03:22;100570.22;;;18.91;63.55
63204;BME280;49297;43.210;27.914;2023-06-10T04:05:48;100578.88;;;18.93;63.48
63204;BME280;49297;43.210;27.914;2023-06-10T04:08:20;100572.38;;;19.02;63.16
63204;BME280;49297;43.210;27.914;2023-06-10T04:10:48;100565.81;;;19.11;63.10
63204;BME280;49297;43.210;27.914;2023-06-10T04:13:14;100566.88;;;19.17;62.60
63204;BME280;49297;43.210;27.914;2023-06-10T04:15:42;100567.31;;;19.20;62.55
63204;BME280;49297;43.210;27.914;2023-06-10T04:18:08;100565.09;;;19.31;62.37
63204;BME280;49297;43.210;27.914;2023-06-10T04:20:35;100565.75;;;19.39;61.95
63204;BME280;49297;43.210;27.914;2023-06-10T04:23:01;100566.19;;;19.50;61.34
63204;BME280;49297;43.210;27.914;2023-06-10T04:25:27;100560.03;;;19.56;60.79
63204;BME280;49297;43.210;27.914;2023-06-10T04:27:55;100560.47;;;19.59;60.38
63204;BME280;49297;43.210;27.914;2023-06-10T04:30:23;100561.28;;;19.60;60.33
63204;BME280;49297;43.210;27.914;2023-06-10T04:32:48;100565.88;;;19.66;60.04
63204;BME280;49297;43.210;27.914;2023-06-10T04:35:15;100559.66;;;19.66;60.41
63204;BME280;49297;43.210;27.914;2023-06-10T04:37:41;100570.88;;;19.76;60.82
63204;BME280;49297;43.210;27.914;2023-06-10T04:40:09;100567.59;;;19.87;60.69
63204;BME280;49297;43.210;27.914;2023-06-10T04:42:37;100567.66;;;20.01;60.09
63204;BME280;49297;43.210;27.914;2023-06-10T04:45:03;100565.81;;;20.08;59.64
63204;BME280;49297;43.210;27.914;2023-06-10T04:47:30;100560.88;;;20.18;60.01
63204;BME280;49297;43.210;27.914;2023-06-10T04:50:00;100560.66;;;20.26;59.06
63204;BME280;49297;43.210;27.914;2023-06-10T04:52:27;100568.91;;;20.25;58.76
63204;BME280;49297;43.210;27.914;2023-06-10T04:54:53;100571.63;;;20.18;58.57
63204;BME280;49297;43.210;27.914;2023-06-10T04:57:21;100572.03;;;20.15;58.40
63204;BME280;49297;43.210;27.914;2023-06-10T04:59:47;100580.69;;;20.17;58.86
63204;BME280;49297;43.210;27.914;2023-06-10T05:02:13;100572.25;;;20.20;58.71
63204;BME280;49297;43.210;27.914;2023-06-10T05:04:39;100573.47;;;20.24;58.24
63204;BME280;49297;43.210;27.914;2023-06-10T05:07:05;100578.88;;;20.31;58.49
63204;BME280;49297;43.210;27.914;2023-06-10T05:09:31;100579.28;;;20.34;58.99
63204;BME280;49297;43.210;27.914;2023-06-10T05:11:59;100582.81;;;20.42;57.78
63204;BME280;49297;43.210;27.914;2023-06-10T05:14:27;100577.84;;;20.45;57.93
63204;BME280;49297;43.210;27.914;2023-06-10T05:16:54;100581.56;;;20.51;57.52
63204;BME280;49297;43.210;27.914;2023-06-10T05:19:20;100576.81;;;20.53;57.56
63204;BME280;49297;43.210;27.914;2023-06-10T05:21:47;100568.56;;;20.61;57.66
63204;BME280;49297;43.210;27.914;2023-06-10T05:24:13;100572.50;;;20.72;57.44
63204;BME280;49297;43.210;27.914;2023-06-10T05:26:39;100575.41;;;20.84;57.10
63204;BME280;49297;43.210;27.914;2023-06-10T05:29:07;100568.97;;;20.98;56.71
63204;BME280;49297;43.210;27.914;2023-06-10T05:31:35;100574.31;;;21.11;56.45
63204;BME280;49297;43.210;27.914;2023-06-10T05:34:02;100575.53;;;21.22;56.07
63204;BME280;49297;43.210;27.914;2023-06-10T05:36:27;100573.00;;;21.34;56.22
63204;BME280;49297;43.210;27.914;2023-06-10T05:38:54;100562.22;;;21.47;56.09
63204;BME280;49297;43.210;27.914;2023-06-10T05:41:20;100560.53;;;21.53;56.30
63204;BME280;49297;43.210;27.914;2023-06-10T05:43:47;100561.97;;;21.62;55.83
63204;BME280;49297;43.210;27.914;2023-06-10T05:46:13;100553.00;;;21.68;55.93
63204;BME280;49297;43.210;27.914;2023-06-10T05:48:39;100555.41;;;21.83;56.50
63204;BME280;49297;43.210;27.914;2023-06-10T05:51:05;100548.06;;;21.97;55.92
63204;BME280;49297;43.210;27.914;2023-06-10T05:53:31;100552.16;;;22.06;55.83
63204;BME280;49297;43.210;27.914;2023-06-10T05:55:58;100545.69;;;22.14;55.73
63204;BME280;49297;43.210;27.914;2023-06-10T05:58:24;100541.72;;;22.17;55.77
63204;BME280;49297;43.210;27.914;2023-06-10T06:00:51;100537.53;;;22.28;55.82
63204;BME280;49297;43.210;27.914;2023-06-10T06:03:19;100548.66;;;22.38;55.08
63204;BME280;49297;43.210;27.914;2023-06-10T06:05:45;100542.38;;;22.44;53.73
63204;BME280;49297;43.210;27.914;2023-06-10T06:08:12;100546.94;;;22.43;53.37
63204;BME280;49297;43.210;27.914;2023-06-10T06:10:39;100544.41;;;22.49;52.84
63204;BME280;49297;43.210;27.914;2023-06-10T06:13:06;100543.31;;;22.56;52.67
63204;BME280;49297;43.210;27.914;2023-06-10T06:15:32;100543.94;;;22.58;52.61
63204;BME280;49297;43.210;27.914;2023-06-10T06:17:59;100530.97;;;22.67;52.67
63204;BME280;49297;43.210;27.914;2023-06-10T06:20:25;100541.81;;;22.86;51.67
63204;BME280;49297;43.210;27.914;2023-06-10T06:22:51;100533.41;;;22.94;51.24
63204;BME280;49297;43.210;27.914;2023-06-10T06:25:17;100530.97;;;23.11;51.07
63204;BME280;49297;43.210;27.914;2023-06-10T06:27:44;100528.97;;;23.25;50.39
63204;BME280;49297;43.210;27.914;2023-06-10T06:30:11;100531.94;;;23.35;50.39
63204;BME280;49297;43.210;27.914;2023-06-10T06:32:37;100534.69;;;23.47;50.01
63204;BME280;49297;43.210;27.914;2023-06-10T06:35:04;100520.31;;;23.53;49.83
63204;BME280;49297;43.210;27.914;2023-06-10T06:37:31;100528.44;;;23.65;49.68
63204;BME280;49297;43.210;27.914;2023-06-10T06:40:03;100525.06;;;23.69;48.85
63204;BME280;49297;43.210;27.914;2023-06-10T06:42:31;100523.25;;;23.63;49.01
63204;BME280;49297;43.210;27.914;2023-06-10T06:44:58;100529.97;;;23.61;48.95
63204;BME280;49297;43.210;27.914;2023-06-10T06:47:24;100521.25;;;23.59;48.29
63204;BME280;49297;43.210;27.914;2023-06-10T06:49:53;100519.59;;;23.57;48.16
63204;BME280;49297;43.210;27.914;2023-06-10T06:52:25;100519.97;;;23.61;48.34
63204;BME280;49297;43.210;27.914;2023-06-10T06:54:52;100522.59;;;23.68;48.91
63204;BME280;49297;43.210;27.914;2023-06-10T06:57:18;100514.09;;;23.83;49.05
63204;BME280;49297;43.210;27.914;2023-06-10T06:59:45;100515.66;;;24.02;48.04
63204;BME280;49297;43.210;27.914;2023-06-10T07:02:11;100515.00;;;24.19;47.69
63204;BME280;49297;43.210;27.914;2023-06-10T07:04:36;100505.59;;;24.33;46.93
63204;BME280;49297;43.210;27.914;2023-06-10T07:07:04;100506.78;;;24.49;46.80
63204;BME280;49297;43.210;27.914;2023-06-10T07:09:30;100508.22;;;24.63;45.71
63204;BME280;49297;43.210;27.914;2023-06-10T07:11:56;100502.13;;;24.80;46.29
63204;BME280;49297;43.210;27.914;2023-06-10T07:14:24;100504.91;;;24.97;46.42
63204;BME280;49297;43.210;27.914;2023-06-10T07:16:50;100500.97;;;25.16;45.88
63204;BME280;49297;43.210;27.914;2023-06-10T07:19:16;100498.13;;;25.35;45.29
63204;BME280;49297;43.210;27.914;2023-06-10T07:21:42;100495.81;;;25.55;44.95
63204;BME280;49297;43.210;27.914;2023-06-10T07:24:08;100503.16;;;25.72;43.34
63204;BME280;49297;43.210;27.914;2023-06-10T07:26:34;100499.59;;;25.83;43.02
63204;BME280;49297;43.210;27.914;2023-06-10T07:29:00;100496.47;;;25.91;42.76
63204;BME280;49297;43.210;27.914;2023-06-10T07:31:26;100498.94;;;25.93;41.28
63204;BME280;49297;43.210;27.914;2023-06-10T07:33:54;100501.44;;;25.94;41.23
63204;BME280;49297;43.210;27.914;2023-06-10T07:36:20;100500.34;;;25.95;40.96
63204;BME280;49297;43.210;27.914;2023-06-10T07:38:45;100506.84;;;25.94;40.42
63204;BME280;49297;43.210;27.914;2023-06-10T07:41:11;100504.03;;;25.89;41.01
63204;BME280;49297;43.210;27.914;2023-06-10T07:43:38;100507.72;;;25.83;41.51
63204;BME280;49297;43.210;27.914;2023-06-10T07:46:03;100498.91;;;25.76;41.95
63204;BME280;49297;43.210;27.914;2023-06-10T07:48:32;100503.50;;;25.75;41.81
63204;BME280;49297;43.210;27.914;2023-06-10T07:51:00;100499.25;;;25.79;41.57
63204;BME280;49297;43.210;27.914;2023-06-10T07:53:27;100504.03;;;25.89;41.50
63204;BME280;49297;43.210;27.914;2023-06-10T07:55:53;100500.44;;;26.00;41.15
63204;BME280;49297;43.210;27.914;2023-06-10T07:58:19;100503.09;;;26.12;41.02
63204;BME280;49297;43.210;27.914;2023-06-10T08:00:46;100494.34;;;26.27;41.23
63204;BME280;49297;43.210;27.914;2023-06-10T08:03:12;100494.03;;;26.40;40.66
63204;BME280;49297;43.210;27.914;2023-06-10T08:05:44;100497.72;;;26.51;40.45
63204;BME280;49297;43.210;27.914;2023-06-10T08:08:10;100492.25;;;26.63;40.66
63204;BME280;49297;43.210;27.914;2023-06-10T08:10:36;100491.38;;;26.80;39.64
63204;BME280;49297;43.210;27.914;2023-06-10T08:13:02;100488.03;;;26.94;39.12
63204;BME280;49297;43.210;27.914;2023-06-10T08:15:28;100488.28;;;27.15;38.60
63204;BME280;49297;43.210;27.914;2023-06-10T08:20:24;100481.34;;;27.24;38.57
63204;BME280;49297;43.210;27.914;2023-06-10T08:23:09;100482.41;;;27.23;37.75
63204;BME280;49297;43.210;27.914;2023-06-10T08:25:41;100478.06;;;27.22;37.71
63204;BME280;49297;43.210;27.914;2023-06-10T08:28:07;100472.09;;;27.25;37.48
63204;BME280;49297;43.210;27.914;2023-06-10T08:30:34;100476.56;;;27.31;36.80
63204;BME280;49297;43.210;27.914;2023-06-10T08:33:01;100471.25;;;27.42;36.72
63204;BME280;49297;43.210;27.914;2023-06-10T08:35:28;100477.38;;;27.59;36.96
63204;BME280;49297;43.210;27.914;2023-06-10T08:37:54;100473.16;;;27.73;35.74
63204;BME280;49297;43.210;27.914;2023-06-10T08:40:21;100468.66;;;27.84;37.02
63204;BME280;49297;43.210;27.914;2023-06-10T08:42:54;100479.22;;;27.81;35.82
63204;BME280;49297;43.210;27.914;2023-06-10T08:45:24;100464.09;;;27.63;36.24
63204;BME280;49297;43.210;27.914;2023-06-10T08:47:50;100470.00;;;27.54;38.67
63204;BME280;49297;43.210;27.914;2023-06-10T08:50:17;100479.22;;;27.53;39.25
63204;BME280;49297;43.210;27.914;2023-06-10T08:52:44;100474.28;;;27.50;39.26
63204;BME280;49297;43.210;27.914;2023-06-10T08:55:23;100478.09;;;27.49;39.02
63204;BME280;49297;43.210;27.914;2023-06-10T08:57:53;100472.56;;;27.39;39.21
63204;BME280;49297;43.210;27.914;2023-06-10T09:02:48;100458.09;;;27.33;41.13
63204;BME280;49297;43.210;27.914;2023-06-10T09:05:17;100448.59;;;27.36;41.06
63204;BME280;49297;43.210;27.914;2023-06-10T09:07:43;100455.69;;;27.37;40.28
63204;BME280;49297;43.210;27.914;2023-06-10T09:10:15;100460.69;;;27.45;40.92
63204;BME280;49297;43.210;27.914;2023-06-10T09:12:41;100447.69;;;27.52;40.79
63204;BME280;49297;43.210;27.914;2023-06-10T09:15:06;100445.03;;;27.58;40.20
63204;BME280;49297;43.210;27.914;2023-06-10T09:17:32;100445.63;;;27.65;39.29
63204;BME280;49297;43.210;27.914;2023-06-10T09:19:59;100455.78;;;27.75;38.63
63204;BME280;49297;43.210;27.914;2023-06-10T09:22:28;100451.19;;;27.80;39.68
63204;BME280;49297;43.210;27.914;2023-06-10T09:25:04;100448.78;;;27.84;39.82
63204;BME280;49297;43.210;27.914;2023-06-10T09:27:30;100453.41;;;27.83;39.32
63204;BME280;49297;43.210;27.914;2023-06-10T09:29:57;100436.59;;;27.86;38.01
63204;BME280;49297;43.210;27.914;2023-06-10T09:32:23;100443.75;;;27.98;38.63
63204;BME280;49297;43.210;27.914;2023-06-10T09:34:51;100442.50;;;28.10;38.27
63204;BME280;49297;43.210;27.914;2023-06-10T09:37:21;100446.16;;;28.26;37.77
63204;BME280;49297;43.210;27.914;2023-06-10T09:40:05;100445.16;;;28.43;37.21
63204;BME280;49297;43.210;27.914;2023-06-10T09:42:34;100438.97;;;28.53;39.98
63204;BME280;49297;43.210;27.914;2023-06-10T09:45:01;100439.34;;;28.66;39.02
63204;BME280;49297;43.210;27.914;2023-06-10T09:47:27;100444.59;;;28.83;39.12
63204;BME280;49297;43.210;27.914;2023-06-10T09:49:53;100442.44;;;28.91;38.81
63204;BME280;49297;43.210;27.914;2023-06-10T09:52:22;100450.94;;;29.04;37.80
63204;BME280;49297;43.210;27.914;2023-06-10T09:54:50;100442.31;;;29.28;37.01
63204;BME280;49297;43.210;27.914;2023-06-10T09:57:17;100441.25;;;29.45;37.34
63204;BME280;49297;43.210;27.914;2023-06-10T09:59:45;100438.81;;;29.69;36.70
63204;BME280;49297;43.210;27.914;2023-06-10T10:02:18;100430.66;;;29.99;34.95
63204;BME280;49297;43.210;27.914;2023-06-10T10:04:44;100426.53;;;30.23;33.46
63204;BME280;49297;43.210;27.914;2023-06-10T10:07:11;100420.53;;;30.41;33.55
63204;BME280;49297;43.210;27.914;2023-06-10T10:09:39;100435.44;;;30.69;33.03
63204;BME280;49297;43.210;27.914;2023-06-10T10:12:12;100431.22;;;31.03;31.99
63204;BME280;49297;43.210;27.914;2023-06-10T10:14:38;100421.75;;;31.35;29.31
63204;BME280;49297;43.210;27.914;2023-06-10T10:17:06;100417.09;;;31.75;28.15
63204;BME280;49297;43.210;27.914;2023-06-10T10:19:34;100420.66;;;32.10;27.61
63204;BME280;49297;43.210;27.914;2023-06-10T10:22:06;100416.66;;;32.26;28.91
63204;BME280;49297;43.210;27.914;2023-06-10T10:24:36;100412.75;;;32.32;28.09
63204;BME280;49297;43.210;27.914;2023-06-10T10:27:10;100413.56;;;32.57;27.29
63204;BME280;49297;43.210;27.914;2023-06-10T10:29:38;100411.19;;;32.74;26.84
63204;BME280;49297;43.210;27.914;2023-06-10T10:32:04;100403.88;;;33.08;26.18
63204;BME280;49297;43.210;27.914;2023-06-10T10:35:17;100406.25;;;33.52;25.54
63204;BME280;49297;43.210;27.914;2023-06-10T10:37:18;100406.84;;;33.49;25.49
63204;BME280;49297;43.210;27.914;2023-06-10T10:39:44;100416.00;;;33.26;25.47
63204;BME280;49297;43.210;27.914;2023-06-10T10:42:10;100402.78;;;33.09;25.32
63204;BME280;49297;43.210;27.914;2023-06-10T10:44:37;100398.59;;;33.16;24.75
63204;BME280;49297;43.210;27.914;2023-06-10T10:47:04;100398.53;;;33.54;24.74
63204;BME280;49297;43.210;27.914;2023-06-10T10:49:33;100400.44;;;34.06;24.70
63204;BME280;49297;43.210;27.914;2023-06-10T10:52:01;100400.91;;;34.41;23.47
63204;BME280;49297;43.210;27.914;2023-06-10T10:54:30;100399.03;;;34.78;23.22
63204;BME280;49297;43.210;27.914;2023-06-10T10:57:09;100400.28;;;35.22;23.02
63204;BME280;49297;43.210;27.914;2023-06-10T11:05:08;100391.66;;;36.54;22.19
63204;BME280;49297;43.210;27.914;2023-06-10T11:07:35;100397.50;;;36.12;22.36
63204;BME280;49297;43.210;27.914;2023-06-10T11:10:09;100395.47;;;35.27;23.44
63204;BME280;49297;43.210;27.914;2023-06-10T11:12:49;100388.47;;;34.57;23.86
63204;BME280;49297;43.210;27.914;2023-06-10T11:15:19;100388.50;;;34.71;24.56
63204;BME280;49297;43.210;27.914;2023-06-10T11:23:38;100392.44;;;35.74;23.86
63204;BME280;49297;43.210;27.914;2023-06-10T11:26:29;100383.28;;;35.06;24.98
63204;BME280;49297;43.210;27.914;2023-06-10T11:31:28;100365.47;;;34.25;25.80
63204;BME280;49297;43.210;27.914;2023-06-10T11:34:03;100364.84;;;34.84;23.80
63204;BME280;49297;43.210;27.914;2023-06-10T11:36:31;100360.78;;;35.40;22.84
63204;BME280;49297;43.210;27.914;2023-06-10T11:38:58;100355.19;;;35.77;21.37
63204;BME280;49297;43.210;27.914;2023-06-10T11:41:26;100351.06;;;35.65;20.81
63204;BME280;49297;43.210;27.914;2023-06-10T11:43:53;100342.81;;;35.97;21.11
63204;BME280;49297;43.210;27.914;2023-06-10T11:46:24;100347.06;;;36.52;21.50
63204;BME280;49297;43.210;27.914;2023-06-10T11:48:56;100349.03;;;36.60;23.41
63204;BME280;49297;43.210;27.914;2023-06-10T11:51:28;100338.94;;;36.38;24.72
63204;BME280;49297;43.210;27.914;2023-06-10T11:53:54;100352.69;;;36.29;24.63
63204;BME280;49297;43.210;27.914;2023-06-10T11:56:23;100344.56;;;35.84;24.71
63204;BME280;49297;43.210;27.914;2023-06-10T11:58:53;100347.25;;;35.07;26.19
63204;BME280;49297;43.210;27.914;2023-06-10T12:01:21;100339.31;;;34.42;26.79
63204;BME280;49297;43.210;27.914;2023-06-10T12:03:47;100330.97;;;34.47;26.53
63204;BME280;49297;43.210;27.914;2023-06-10T12:06:14;100337.88;;;34.72;26.25
63204;BME280;49297;43.210;27.914;2023-06-10T12:08:43;100341.91;;;34.88;26.53
63204;BME280;49297;43.210;27.914;2023-06-10T12:11:10;100318.69;;;35.17;26.11
63204;BME280;49297;43.210;27.914;2023-06-10T12:13:37;100330.03;;;35.70;25.41
63204;BME280;49297;43.210;27.914;2023-06-10T12:16:12;100326.78;;;35.99;25.29
63204;BME280;49297;43.210;27.914;2023-06-10T12:18:38;100322.94;;;36.09;24.75
63204;BME280;49297;43.210;27.914;2023-06-10T12:21:26;100314.38;;;36.10;23.35
63204;BME280;49297;43.210;27.914;2023-06-10T12:24:08;100324.47;;;36.24;21.98
63204;BME280;49297;43.210;27.914;2023-06-10T12:26:40;100306.19;;;36.45;21.27
63204;BME280;49297;43.210;27.914;2023-06-10T12:31:53;100320.06;;;36.14;22.32
63204;BME280;49297;43.210;27.914;2023-06-10T12:34:19;100304.28;;;35.65;22.70
63204;BME280;49297;43.210;27.914;2023-06-10T12:36:49;100306.47;;;35.23;23.13
63204;BME280;49297;43.210;27.914;2023-06-10T12:39:15;100307.97;;;35.30;23.35
63204;BME280;49297;43.210;27.914;2023-06-10T12:41:46;100299.31;;;35.45;23.27
63204;BME280;49297;43.210;27.914;2023-06-10T12:44:12;100305.78;;;35.72;22.74
63204;BME280;49297;43.210;27.914;2023-06-10T12:46:38;100298.09;;;35.91;22.71
63204;BME280;49297;43.210;27.914;2023-06-10T12:49:04;100294.84;;;35.89;22.75
63204;BME280;49297;43.210;27.914;2023-06-10T12:51:31;100292.28;;;35.93;22.88
63204;BME280;49297;43.210;27.914;2023-06-10T12:53:57;100293.28;;;36.06;21.78
63204;BME280;49297;43.210;27.914;2023-06-10T12:56:23;100282.47;;;36.18;21.90
63204;BME280;49297;43.210;27.914;2023-06-10T12:58:49;100287.97;;;36.18;21.90
63204;BME280;49297;43.210;27.914;2023-06-10T13:01:15;100280.03;;;36.16;22.93
63204;BME280;49297;43.210;27.914;2023-06-10T13:03:41;100277.75;;;36.18;22.75
63204;BME280;49297;43.210;27.914;2023-06-10T13:06:07;100275.13;;;35.96;23.23